Time;durP1;ratioP1;P1;durP2;ratioP2;P2;SDS_P1;SDS_P2;PMS_P1;PMS_P2;Temp;Humidity;BMP_temperature;BMP_pressure;BME280_temperature;BME280_humidity;BME280_pressure;Samples;Min_cycle;Max_cycle;Signal;HPM_P1;HPM_P2
2024/04/14 00:00:17;;;;;;;6.10;3.80;;;;;;;13.78;69.19;97096.66;108554;1275;22548;-73
2024/04/14 00:03:10;;;;;;;6.80;4.50;;;;;;;13.77;69.30;97092.15;108586;1273;24286;-73
2024/04/14 00:05:41;;;;;;;6.70;3.90;;;;;;;13.75;69.45;97094.90;108625;1275;24976;-73
2024/04/14 00:08:12;;;;;;;5.30;3.70;;;;;;;13.72;69.53;97091.80;108579;1275;23562;-73
2024/04/14 00:10:42;;;;;;;7.00;4.00;;;;;;;13.72;69.49;97088.54;108540;1268;22682;-73
2024/04/14 00:13:13;;;;;;;7.20;3.70;;;;;;;13.70;69.52;97087.50;108589;1271;24462;-73
2024/04/14 00:15:43;;;;;;;6.40;4.20;;;;;;;13.67;69.58;97087.92;108573;1275;22551;-73
2024/04/14 00:18:31;;;;;;;7.40;4.50;;;;;;;13.60;69.59;97085.12;108586;1275;22535;-73
2024/04/14 00:21:04;;;;;;;7.70;4.80;;;;;;;13.56;69.87;97077.88;108579;1274;22531;-73
2024/04/14 00:23:38;;;;;;;4.40;3.10;;;;;;;13.50;69.97;97072.66;108617;1272;22524;-73
2024/04/14 00:26:09;;;;;;;5.50;4.00;;;;;;;13.49;69.96;97065.33;108598;1275;22582;-73
2024/04/14 00:28:40;;;;;;;5.10;3.50;;;;;;;13.48;70.15;97061.70;108629;1275;22512;-73
2024/04/14 00:31:11;;;;;;;7.60;3.80;;;;;;;13.48;70.26;97059.38;108562;1271;22520;-73
2024/04/14 00:33:41;;;;;;;5.20;3.50;;;;;;;13.46;70.18;97055.94;108606;1269;22519;-73
2024/04/14 00:36:12;;;;;;;6.20;4.00;;;;;;;13.43;70.23;97056.63;108600;1275;22510;-73
2024/04/14 00:38:43;;;;;;;5.40;3.70;;;;;;;13.38;70.31;97058.55;108616;1275;22509;-73
2024/04/14 00:41:14;;;;;;;6.80;3.80;;;;;;;13.28;70.55;97057.17;108564;1275;22522;-73
2024/04/14 00:43:44;;;;;;;7.10;3.90;;;;;;;13.18;70.83;97050.49;108560;1268;22979;-73
2024/04/14 00:46:17;;;;;;;6.00;3.50;;;;;;;13.08;71.08;97047.25;108580;1268;25244;-72
2024/04/14 00:48:48;;;;;;;8.70;4.40;;;;;;;12.99;71.46;97047.83;108555;1275;22541;-73
2024/04/14 00:51:20;;;;;;;7.40;3.90;;;;;;;12.92;71.75;97047.20;108585;1269;24269;-73
2024/04/14 00:53:52;;;;;;;5.80;3.90;;;;;;;12.89;71.95;97038.23;108591;1274;22577;-73
2024/04/14 00:56:23;;;;;;;9.30;4.60;;;;;;;12.91;72.09;97035.02;108522;1274;22537;-73
2024/04/14 00:58:53;;;;;;;6.40;4.20;;;;;;;12.91;72.00;97034.01;108504;1275;25409;-73
2024/04/14 01:01:24;;;;;;;5.80;3.70;;;;;;;12.88;72.15;97036.98;108544;1275;32193;-72
2024/04/14 01:03:56;;;;;;;5.00;3.80;;;;;;;12.87;72.27;97024.52;108544;1275;22533;-73
2024/04/14 01:06:26;;;;;;;5.60;3.90;;;;;;;12.87;72.45;97021.39;108615;1271;22519;-72
2024/04/14 01:08:57;;;;;;;5.60;3.60;;;;;;;12.92;72.45;97019.90;108578;1275;23344;-72
2024/04/14 01:11:28;;;;;;;6.50;4.00;;;;;;;12.93;72.49;97015.98;108533;1271;24251;-72
2024/04/14 01:13:59;;;;;;;5.80;3.60;;;;;;;12.95;72.46;97014.17;108591;1275;22556;-72
2024/04/14 01:16:29;;;;;;;7.50;3.90;;;;;;;12.94;72.38;97009.43;108563;1275;23145;-72
2024/04/14 01:19:00;;;;;;;6.00;3.80;;;;;;;12.91;72.35;97007.19;108614;1271;22533;-72
2024/04/14 01:21:31;;;;;;;5.20;3.60;;;;;;;12.89;72.64;97003.59;108674;1269;22533;-73
2024/04/14 01:24:02;;;;;;;4.70;3.80;;;;;;;12.86;72.74;96998.14;108630;1275;25319;-73
2024/04/14 01:26:32;;;;;;;5.30;3.40;;;;;;;12.87;72.76;96991.33;108723;1269;22526;-72
2024/04/14 01:29:03;;;;;;;5.70;4.10;;;;;;;12.89;72.73;96992.99;108676;1268;24356;-72
2024/04/14 01:31:34;;;;;;;7.80;3.90;;;;;;;12.90;72.72;96988.46;108578;1274;25244;-72
2024/04/14 01:34:05;;;;;;;6.30;3.70;;;;;;;12.91;72.78;96986.91;108532;1268;22645;-73
2024/04/14 01:36:35;;;;;;;4.80;3.70;;;;;;;12.90;72.69;96985.27;108623;1268;22525;-72
2024/04/14 01:39:06;;;;;;;5.70;3.30;;;;;;;12.88;72.93;96982.63;108543;1268;22553;-72
2024/04/14 01:41:37;;;;;;;4.20;3.10;;;;;;;12.89;72.91;96980.49;108560;1269;22608;-73
2024/04/14 01:44:09;;;;;;;5.90;3.80;;;;;;;12.92;72.81;96981.68;108601;1269;22537;-72
2024/04/14 01:46:40;;;;;;;5.10;3.40;;;;;;;12.93;72.87;96981.98;108566;1269;25373;-73
2024/04/14 01:49:11;;;;;;;5.00;3.30;;;;;;;12.95;72.79;96977.08;108583;1272;23072;-73
2024/04/14 01:51:45;;;;;;;3.90;3.00;;;;;;;12.96;72.87;96971.85;108534;1269;27590;-73
2024/04/14 01:54:15;;;;;;;5.40;3.70;;;;;;;12.96;72.68;96975.52;108602;1269;22636;-73
2024/04/14 01:56:46;;;;;;;6.70;3.60;;;;;;;12.96;72.66;96980.27;108561;1269;26587;-73
2024/04/14 01:59:19;;;;;;;6.10;3.90;;;;;;;12.93;72.61;96981.45;108658;1273;22550;-72
2024/04/14 02:01:51;;;;;;;4.50;3.50;;;;;;;12.90;72.60;96980.74;108588;1268;22535;-72
2024/04/14 02:04:22;;;;;;;6.30;3.60;;;;;;;12.87;72.65;96976.59;108572;1275;25426;-72
2024/04/14 02:06:55;;;;;;;7.60;4.20;;;;;;;12.82;72.68;96970.63;108636;1266;22529;-72
2024/04/14 02:09:25;;;;;;;7.10;3.60;;;;;;;12.81;72.75;96967.81;108576;1275;22539;-72
2024/04/14 02:11:56;;;;;;;6.50;3.40;;;;;;;12.79;72.69;96969.48;108522;1271;22526;-72
2024/04/14 02:14:27;;;;;;;6.80;4.00;;;;;;;12.75;72.75;96971.48;108597;1269;22566;-72
2024/04/14 02:16:57;;;;;;;5.10;3.60;;;;;;;12.69;72.76;96971.04;108504;1271;23190;-73
2024/04/14 02:19:28;;;;;;;3.70;3.10;;;;;;;12.64;72.76;96967.94;108600;1269;22600;-72
2024/04/14 02:22:01;;;;;;;6.30;3.40;;;;;;;12.58;72.75;96965.14;108570;1268;22738;-72
2024/04/14 02:24:33;;;;;;;6.50;3.40;;;;;;;12.50;72.87;96966.95;108633;1272;25169;-72
2024/04/14 02:27:03;;;;;;;5.00;3.30;;;;;;;12.46;73.27;96966.80;108618;1274;22530;-73
2024/04/14 02:29:34;;;;;;;4.40;3.20;;;;;;;12.48;73.34;96968.84;108577;1275;22540;-73
2024/04/14 02:32:08;;;;;;;4.70;3.10;;;;;;;12.50;73.37;96959.30;108574;1271;22522;-72
2024/04/14 02:34:41;;;;;;;4.40;3.10;;;;;;;12.48;73.35;96957.84;108599;1275;22559;-72
2024/04/14 02:37:12;;;;;;;5.50;3.30;;;;;;;12.46;73.50;96954.35;108533;1268;25725;-72
2024/04/14 02:39:43;;;;;;;3.90;3.20;;;;;;;12.44;73.66;96955.23;108611;1275;22522;-73
2024/04/14 02:42:13;;;;;;;5.20;3.10;;;;;;;12.41;73.78;96951.64;108656;1269;22522;-73
2024/04/14 02:44:44;;;;;;;4.10;2.80;;;;;;;12.42;73.84;96947.85;108604;1255;25404;-73
2024/04/14 02:47:15;;;;;;;4.70;3.20;;;;;;;12.44;74.02;96943.79;108578;1271;22541;-73
2024/04/14 02:49:46;;;;;;;5.00;3.80;;;;;;;12.46;74.01;96942.91;108593;1275;22706;-73
2024/04/14 02:52:18;;;;;;;6.90;3.30;;;;;;;12.48;74.03;96941.44;108653;1269;22535;-72
2024/04/14 02:54:48;;;;;;;4.40;2.90;;;;;;;12.48;74.07;96943.73;108720;1275;22526;-70
2024/04/14 02:57:19;;;;;;;5.20;3.30;;;;;;;12.49;74.18;96941.34;108703;1269;24275;-72
2024/04/14 02:59:50;;;;;;;4.20;2.70;;;;;;;12.50;74.17;96937.33;108664;1269;25341;-74
2024/04/14 03:02:21;;;;;;;6.80;3.50;;;;;;;12.52;74.39;96938.59;108580;1268;22519;-74
2024/04/14 03:04:52;;;;;;;5.20;3.10;;;;;;;12.54;74.41;96937.16;108629;1275;22554;-73
2024/04/14 03:07:23;;;;;;;6.30;3.00;;;;;;;12.56;74.49;96938.10;108585;1275;22525;-73
2024/04/14 03:09:56;;;;;;;5.20;2.90;;;;;;;12.57;74.47;96940.53;108576;1269;25209;-73
2024/04/14 03:12:27;;;;;;;5.80;3.00;;;;;;;12.58;74.41;96931.57;108548;1275;22526;-72
2024/04/14 03:14:58;;;;;;;5.00;2.90;;;;;;;12.56;74.43;96932.88;108560;1275;25385;-72
2024/04/14 03:17:29;;;;;;;6.50;3.40;;;;;;;12.56;74.45;96930.11;108569;1275;22526;-72
2024/04/14 03:19:59;;;;;;;4.50;2.60;;;;;;;12.56;74.34;96922.08;108592;1275;25663;-72
2024/04/14 03:22:31;;;;;;;5.20;2.60;;;;;;;12.57;74.42;96924.99;108476;1269;166330;-72
2024/04/14 03:25:01;;;;;;;3.60;2.60;;;;;;;12.60;74.37;96921.02;108621;1275;23379;-72
2024/04/14 03:27:32;;;;;;;4.90;3.30;;;;;;;12.62;74.40;96919.82;108622;1273;22521;-72
2024/04/14 03:30:03;;;;;;;5.70;3.00;;;;;;;12.63;74.16;96919.86;108585;1270;22563;-72
2024/04/14 03:32:34;;;;;;;5.00;3.00;;;;;;;12.60;74.13;96920.00;108576;1269;23173;-72
2024/04/14 03:35:06;;;;;;;4.40;2.90;;;;;;;12.59;74.11;96914.86;108542;1271;22611;-72
2024/04/14 03:37:40;;;;;;;3.60;2.60;;;;;;;12.60;74.12;96915.96;108557;1275;22529;-72
2024/04/14 03:40:11;;;;;;;4.80;3.00;;;;;;;12.63;74.19;96917.08;108567;1275;22526;-72
2024/04/14 03:42:42;;;;;;;5.00;3.10;;;;;;;12.69;74.03;96907.36;108538;1269;22533;-72
2024/04/14 03:45:12;;;;;;;3.50;2.50;;;;;;;12.73;73.88;96906.19;108568;1271;24252;-72
2024/04/14 03:47:43;;;;;;;4.50;2.40;;;;;;;12.75;73.80;96907.33;108559;1275;22606;-72
2024/04/14 03:50:14;;;;;;;6.70;3.10;;;;;;;12.71;73.65;96901.70;108534;1275;22533;-72
2024/04/14 03:52:44;;;;;;;5.00;2.90;;;;;;;12.71;73.80;96898.92;108519;1272;22567;-72
2024/04/14 03:55:15;;;;;;;5.70;4.30;;;;;;;12.75;73.71;96899.19;108551;1275;22538;-72
2024/04/14 03:57:46;;;;;;;4.90;3.10;;;;;;;12.75;73.61;96898.29;108492;1275;22523;-72
2024/04/14 04:00:16;;;;;;;3.80;2.80;;;;;;;12.79;73.57;96897.02;108549;1275;22517;-72
2024/04/14 04:02:47;;;;;;;3.10;2.60;;;;;;;12.83;73.57;96889.15;108509;1271;22536;-72
2024/04/14 04:05:18;;;;;;;7.20;3.10;;;;;;;12.85;73.39;96890.34;108563;1275;22522;-72
2024/04/14 04:07:50;;;;;;;4.40;2.80;;;;;;;12.89;73.27;96891.88;108506;1269;22574;-72
2024/04/14 04:10:20;;;;;;;5.10;3.10;;;;;;;12.94;73.13;96891.23;108546;1275;22554;-72
2024/04/14 04:12:51;;;;;;;3.80;2.70;;;;;;;12.94;73.00;96891.70;108528;1275;22555;-73
2024/04/14 04:15:22;;;;;;;5.10;2.80;;;;;;;12.96;73.06;96887.48;108612;1269;22741;-73
2024/04/14 04:17:52;;;;;;;5.20;2.60;;;;;;;12.99;73.00;96882.71;108555;1272;22531;-73
2024/04/14 04:20:23;;;;;;;5.50;2.70;;;;;;;13.02;72.96;96876.43;108547;1275;25129;-73
2024/04/14 04:22:53;;;;;;;3.30;2.40;;;;;;;13.03;72.89;96871.84;108499;1273;22544;-73
2024/04/14 04:25:25;;;;;;;5.60;2.20;;;;;;;13.03;73.02;96872.96;108441;1276;25440;-73
2024/04/14 04:27:56;;;;;;;4.00;2.70;;;;;;;13.08;73.12;96875.18;108451;1276;22557;-73
2024/04/14 04:30:26;;;;;;;5.60;2.40;;;;;;;13.09;73.05;96872.89;108439;1274;22518;-73
2024/04/14 04:32:57;;;;;;;3.60;2.60;;;;;;;13.18;73.06;96870.81;108560;1270;22537;-73
2024/04/14 04:35:28;;;;;;;3.80;2.20;;;;;;;13.28;72.97;96866.96;108565;1275;22515;-72
2024/04/14 04:37:58;;;;;;;3.20;2.30;;;;;;;13.39;72.85;96860.46;108535;1275;22546;-73
2024/04/14 04:40:30;;;;;;;4.20;2.40;;;;;;;13.48;72.66;96860.04;108542;1275;22495;-73
2024/04/14 04:43:00;;;;;;;3.20;2.20;;;;;;;13.59;72.57;96857.00;108567;1275;22532;-73
2024/04/14 04:45:31;;;;;;;2.60;2.20;;;;;;;13.69;72.48;96854.97;108532;1272;22530;-73
2024/04/14 04:48:01;;;;;;;3.50;2.40;;;;;;;13.80;72.36;96853.30;108542;1275;23367;-73
2024/04/14 04:50:32;;;;;;;6.30;2.70;;;;;;;13.91;72.18;96851.23;108535;1275;22530;-73
2024/04/14 04:53:04;;;;;;;4.70;2.40;;;;;;;14.05;71.74;96845.50;108540;1275;25474;-72
2024/04/14 04:55:35;;;;;;;2.90;2.30;;;;;;;14.13;71.34;96844.17;108544;1275;22552;-72
2024/04/14 04:58:05;;;;;;;3.40;2.70;;;;;;;14.26;71.16;96834.83;108523;1272;22545;-72
2024/04/14 05:00:36;;;;;;;4.80;2.30;;;;;;;14.41;70.91;96829.69;108492;1275;22569;-73
2024/04/14 05:03:07;;;;;;;3.30;2.60;;;;;;;14.59;70.61;96827.48;108561;1275;25271;-73
2024/04/14 05:05:38;;;;;;;3.20;2.20;;;;;;;14.81;69.93;96823.98;108574;1275;25380;-73
2024/04/14 05:08:12;;;;;;;3.60;2.60;;;;;;;14.93;69.53;96820.37;108537;1275;22678;-73
2024/04/14 05:10:43;;;;;;;4.50;2.30;;;;;;;14.92;69.14;96817.66;108481;1275;22559;-73
2024/04/14 05:13:13;;;;;;;3.20;2.20;;;;;;;14.92;68.64;96813.06;108515;1272;22569;-73
2024/04/14 05:15:44;;;;;;;3.60;2.80;;;;;;;14.98;68.57;96815.60;108584;1268;22575;-73
2024/04/14 05:18:15;;;;;;;5.70;2.60;;;;;;;15.08;68.25;96809.19;108511;1275;22535;-73
2024/04/14 05:20:46;;;;;;;4.00;2.50;;;;;;;15.18;67.74;96809.38;108545;1271;49468;-73
2024/04/14 05:23:17;;;;;;;3.00;2.10;;;;;;;15.25;67.44;96805.42;108513;1275;24394;-72
2024/04/14 05:25:50;;;;;;;4.30;2.60;;;;;;;15.35;67.18;96799.15;108598;1268;22551;-72
2024/04/14 05:28:21;;;;;;;3.30;2.20;;;;;;;15.49;66.72;96797.39;108569;1265;25470;-73
2024/04/14 05:30:51;;;;;;;2.80;2.10;;;;;;;15.69;66.22;96799.95;108595;1269;23078;-72
2024/04/14 05:33:22;;;;;;;3.60;2.20;;;;;;;15.87;65.63;96801.30;108609;1273;22533;-73
2024/04/14 05:35:57;;;;;;;2.20;2.00;;;;;;;16.09;64.99;96798.90;108655;1275;22552;-71
2024/04/14 05:38:27;;;;;;;4.10;2.20;;;;;;;16.36;63.90;96800.76;108637;1274;22541;-71
2024/04/14 05:40:58;;;;;;;3.20;1.90;;;;;;;16.49;63.49;96794.96;108623;1275;25301;-71
2024/04/14 05:43:29;;;;;;;2.40;2.00;;;;;;;16.72;62.89;96784.97;108628;1271;22592;-72
2024/04/14 05:46:00;;;;;;;3.00;2.00;;;;;;;16.87;62.37;96777.23;108597;1275;22557;-72
2024/04/14 05:48:33;;;;;;;3.30;2.00;;;;;;;16.99;61.96;96769.42;108546;1270;22565;-72
2024/04/14 05:51:04;;;;;;;3.90;1.70;;;;;;;17.09;61.51;96758.17;108572;1275;22606;-72
2024/04/14 05:53:36;;;;;;;3.30;1.80;;;;;;;17.11;61.32;96755.71;108524;1272;22524;-72
2024/04/14 05:56:11;;;;;;;2.90;1.80;;;;;;;17.20;61.03;96761.85;108581;1269;22600;-72
2024/04/14 05:58:46;;;;;;;4.60;1.90;;;;;;;17.32;60.44;96756.86;108641;1270;23559;-72
2024/04/14 06:01:20;;;;;;;3.40;2.00;;;;;;;17.41;59.77;96763.84;108516;1269;22531;-72
2024/04/14 06:03:52;;;;;;;2.40;1.80;;;;;;;17.45;59.74;96754.41;108508;1275;25244;-72
2024/04/14 06:06:23;;;;;;;2.10;1.90;;;;;;;17.45;59.40;96755.10;108520;1272;22527;-72
2024/04/14 06:08:54;;;;;;;3.10;1.80;;;;;;;17.59;59.70;96748.14;108491;1275;24249;-72
2024/04/14 06:11:27;;;;;;;4.40;2.00;;;;;;;17.70;58.92;96745.85;108474;1275;22569;-73
2024/04/14 06:13:58;;;;;;;5.00;1.80;;;;;;;17.68;58.29;96740.17;108569;1275;22568;-72
2024/04/14 06:16:29;;;;;;;2.80;1.80;;;;;;;17.66;58.26;96748.59;108628;1269;25363;-72
2024/04/14 06:19:00;;;;;;;2.50;1.80;;;;;;;18.19;58.21;96741.91;108575;1271;22566;-72
2024/04/14 06:21:33;;;;;;;3.80;1.90;;;;;;;18.69;56.76;96735.98;108496;1271;24238;-73
2024/04/14 06:24:05;;;;;;;2.40;1.80;;;;;;;19.01;55.88;96741.81;108522;1275;24176;-72
2024/04/14 06:26:35;;;;;;;3.90;1.50;;;;;;;19.74;54.94;96737.22;108554;1275;25484;-72
2024/04/14 06:29:06;;;;;;;2.40;1.70;;;;;;;20.20;53.59;96733.02;108541;1272;25412;-73
2024/04/14 06:31:37;;;;;;;2.40;1.80;;;;;;;20.64;52.91;96736.83;108506;1275;22748;-73
2024/04/14 06:34:07;;;;;;;2.50;1.80;;;;;;;20.73;52.08;96730.30;108534;1275;22633;-73
2024/04/14 06:36:38;;;;;;;2.50;1.70;;;;;;;20.52;51.79;96730.25;108584;1272;25244;-73
2024/04/14 06:39:11;;;;;;;2.90;1.90;;;;;;;20.53;51.74;96721.43;108576;1275;24245;-73
2024/04/14 06:41:42;;;;;;;5.00;1.80;;;;;;;20.78;51.02;96721.51;108515;1271;22527;-72
2024/04/14 06:44:12;;;;;;;4.40;2.10;;;;;;;20.57;51.08;96717.34;108543;1275;24209;-73
2024/04/14 06:46:43;;;;;;;4.40;2.00;;;;;;;20.43;51.34;96717.08;108516;1269;22532;-73
2024/04/14 06:49:14;;;;;;;4.30;2.10;;;;;;;20.47;51.63;96714.72;108529;1269;25311;-73
2024/04/14 06:51:47;;;;;;;2.70;1.70;;;;;;;20.82;51.56;96724.38;108536;1269;25404;-73
2024/04/14 06:54:18;;;;;;;3.80;2.10;;;;;;;20.98;50.78;96726.98;108492;1275;22526;-73
2024/04/14 06:56:49;;;;;;;3.10;1.80;;;;;;;21.45;51.18;96728.60;108523;1272;25275;-73
2024/04/14 06:59:22;;;;;;;3.40;2.00;;;;;;;22.49;50.10;96722.81;108546;1275;23839;-74
2024/04/14 07:01:55;;;;;;;4.50;1.80;;;;;;;23.41;48.63;96722.87;108555;1275;22595;-73
2024/04/14 07:04:34;;;;;;;2.60;1.70;;;;;;;23.98;46.12;96721.34;108562;1275;22545;-73
2024/04/14 07:07:05;;;;;;;1.70;1.60;;;;;;;24.51;46.02;96721.31;108608;1275;23236;-73
2024/04/14 07:09:36;;;;;;;3.10;1.20;;;;;;;25.35;45.72;96725.19;108630;1272;22535;-73
2024/04/14 07:12:08;;;;;;;3.00;1.40;;;;;;;26.00;44.75;96724.51;108559;1275;22529;-73
2024/04/14 07:14:38;;;;;;;2.40;1.60;;;;;;;26.49;43.62;96718.60;108650;1275;22525;-73
2024/04/14 07:17:12;;;;;;;2.30;1.10;;;;;;;26.39;41.01;96714.95;108607;1275;22658;-73
2024/04/14 07:19:46;;;;;;;2.70;1.10;;;;;;;25.26;40.66;96720.89;108613;1273;22551;-73
2024/04/14 07:22:17;;;;;;;2.10;1.50;;;;;;;24.37;40.90;96712.11;108576;1273;22523;-74
2024/04/14 07:24:50;;;;;;;2.40;1.30;;;;;;;23.78;41.35;96718.67;108597;1254;22530;-74
2024/04/14 07:27:21;;;;;;;1.20;1.10;;;;;;;24.06;41.10;96715.66;108629;1269;22546;-73
2024/04/14 07:29:52;;;;;;;1.80;1.20;;;;;;;24.07;40.06;96707.64;108626;1271;22531;-73
2024/04/14 07:32:23;;;;;;;2.20;1.20;;;;;;;23.55;39.91;96714.31;108564;1271;22522;-73
2024/04/14 07:34:54;;;;;;;3.20;1.30;;;;;;;23.14;40.74;96714.95;108621;1269;22649;-73
2024/04/14 07:37:24;;;;;;;3.30;1.80;;;;;;;22.80;42.18;96719.41;108586;1270;22631;-72
2024/04/14 07:39:55;;;;;;;2.80;1.60;;;;;;;22.77;42.08;96717.25;108548;1275;22562;-73
2024/04/14 07:42:26;;;;;;;3.90;1.70;;;;;;;22.88;42.83;96714.17;108480;1272;22533;-73
2024/04/14 07:44:57;;;;;;;4.00;1.30;;;;;;;23.01;42.43;96709.74;108557;1270;22516;-73
2024/04/14 07:47:35;;;;;;;2.50;1.40;;;;;;;23.05;42.34;96708.36;108489;1274;22542;-73
2024/04/14 07:50:08;;;;;;;2.00;1.20;;;;;;;22.88;41.79;96710.94;108536;1275;22666;-73
2024/04/14 07:52:41;;;;;;;3.60;1.40;;;;;;;22.63;42.80;96708.44;108569;1275;25412;-73
2024/04/14 07:55:14;;;;;;;2.90;1.50;;;;;;;22.53;42.07;96714.34;108557;1275;22526;-73
2024/04/14 07:57:49;;;;;;;2.50;1.50;;;;;;;22.82;41.94;96716.61;108556;1275;23335;-74
2024/04/14 08:00:22;;;;;;;2.90;1.10;;;;;;;23.23;41.24;96722.21;108540;1275;22585;-73
2024/04/14 08:02:54;;;;;;;2.00;1.40;;;;;;;23.65;40.81;96721.30;108543;1276;25427;-74
2024/04/14 08:05:28;;;;;;;3.20;1.50;;;;;;;24.01;39.98;96718.13;108556;1275;23552;-73
2024/04/14 08:08:05;;;;;;;1.90;1.20;;;;;;;23.97;39.45;96710.09;108491;1275;24408;-71
2024/04/14 08:10:38;;;;;;;4.50;1.80;;;;;;;23.74;39.95;96713.81;108499;1269;22530;-71
2024/04/14 08:13:10;;;;;;;4.20;1.40;;;;;;;23.72;40.38;96707.89;108549;1272;25355;-71
2024/04/14 08:15:45;;;;;;;2.90;1.40;;;;;;;23.67;40.99;96713.61;108512;1275;24248;-73
2024/04/14 08:18:18;;;;;;;4.50;1.20;;;;;;;23.83;40.19;96701.98;108556;1272;22530;-73
2024/04/14 08:20:58;;;;;;;2.50;1.70;;;;;;;23.37;40.41;96706.48;108527;1257;25279;-73
2024/04/14 08:23:32;;;;;;;2.50;1.30;;;;;;;23.04;41.47;96707.49;108545;1273;25435;-72
2024/04/14 08:26:06;;;;;;;3.00;1.40;;;;;;;22.98;41.09;96700.64;108534;1271;22671;-73
2024/04/14 08:28:41;;;;;;;4.20;1.30;;;;;;;23.26;41.16;96693.98;108490;1273;23586;-73
2024/04/14 08:31:11;;;;;;;2.50;1.30;;;;;;;23.47;40.40;96696.45;108512;1275;23106;-73
2024/04/14 08:33:44;;;;;;;3.60;1.50;;;;;;;23.45;40.82;96701.16;108530;1273;26049;-72
2024/04/14 08:36:15;;;;;;;3.10;1.20;;;;;;;23.93;39.35;96694.23;108541;1275;22563;-73
2024/04/14 08:38:46;;;;;;;2.00;1.30;;;;;;;24.41;39.02;96695.85;108495;1275;25431;-72
2024/04/14 08:41:19;;;;;;;1.80;1.20;;;;;;;24.61;37.70;96697.85;108546;1274;22508;-72
2024/04/14 08:43:51;;;;;;;4.60;1.50;;;;;;;24.44;37.68;96696.82;108524;1275;22531;-72
2024/04/14 08:46:31;;;;;;;2.00;1.30;;;;;;;24.30;37.11;96691.98;108420;1275;22635;-72
2024/04/14 08:49:06;;;;;;;2.20;1.10;;;;;;;23.99;37.19;96686.06;108527;1275;22532;-72
2024/04/14 08:51:39;;;;;;;3.60;1.70;;;;;;;23.92;37.42;96691.38;108482;1275;22607;-73
2024/04/14 08:54:14;;;;;;;1.70;1.20;;;;;;;23.80;37.56;96701.15;108477;1266;22902;-73
2024/04/14 08:56:51;;;;;;;2.70;1.50;;;;;;;23.90;37.57;96693.35;108548;1270;22537;-72
2024/04/14 08:59:26;;;;;;;3.60;1.50;;;;;;;23.68;38.01;96689.98;108531;1272;22634;-73
2024/04/14 09:01:57;;;;;;;2.80;1.30;;;;;;;23.57;37.95;96692.95;108542;1272;22524;-72
2024/04/14 09:04:29;;;;;;;3.40;1.90;;;;;;;23.33;38.78;96696.73;108520;1275;22556;-72
2024/04/14 09:07:03;;;;;;;4.10;1.40;;;;;;;23.03;39.29;96689.52;108507;1275;25256;-71
2024/04/14 09:09:34;;;;;;;3.70;1.30;;;;;;;22.77;39.99;96691.98;108433;1271;25372;-72
2024/04/14 09:12:10;;;;;;;2.50;1.40;;;;;;;22.70;40.41;96699.95;108508;1270;25409;-73
2024/04/14 09:14:49;;;;;;;2.30;1.30;;;;;;;22.59;41.38;96697.31;108516;1270;22584;-73
2024/04/14 09:17:20;;;;;;;5.40;1.30;;;;;;;22.40;41.12;96693.73;108513;1254;22555;-72
2024/04/14 09:19:57;;;;;;;2.50;1.30;;;;;;;22.24;41.64;96691.86;108514;1273;22510;-72
2024/04/14 09:22:28;;;;;;;2.90;1.40;;;;;;;22.21;42.21;96687.14;108572;1268;22744;-75
2024/04/14 09:24:59;;;;;;;1.80;1.20;;;;;;;22.28;42.28;96687.15;108474;1271;24299;-76
2024/04/14 09:27:32;;;;;;;2.50;1.50;;;;;;;22.29;41.78;96673.45;108302;1269;23180;-76
2024/04/14 09:30:18;;;;;;;2.20;1.50;;;;;;;22.37;42.60;96679.17;108417;1272;22664;-76
2024/04/14 09:32:49;;;;;;;4.20;1.80;;;;;;;22.47;41.89;96674.69;108454;1270;22530;-76
2024/04/14 09:35:24;;;;;;;2.80;1.40;;;;;;;22.38;41.75;96665.92;108370;1270;22530;-76
2024/04/14 09:37:58;;;;;;;3.60;1.40;;;;;;;22.38;42.20;96671.17;108522;1270;22540;-76
2024/04/14 09:40:34;;;;;;;1.30;1.10;;;;;;;22.46;42.36;96664.39;108504;1272;24371;-76
2024/04/14 09:43:08;;;;;;;2.40;1.50;;;;;;;22.52;41.82;96660.35;108532;1271;22636;-78
2024/04/14 09:45:44;;;;;;;3.50;1.10;;;;;;;22.57;42.06;96657.21;108565;1270;22724;-75
2024/04/14 09:48:22;;;;;;;2.00;1.50;;;;;;;22.56;41.55;96653.34;108488;1272;22643;-75
2024/04/14 09:50:55;;;;;;;5.10;1.80;;;;;;;22.42;41.11;96658.00;108410;1275;23330;-74
2024/04/14 09:53:31;;;;;;;2.30;1.50;;;;;;;22.37;41.57;96651.67;108590;1275;22558;-70
2024/04/14 09:56:02;;;;;;;3.00;1.40;;;;;;;22.39;41.00;96648.20;108567;1275;25275;-76
2024/04/14 09:58:34;;;;;;;2.30;1.50;;;;;;;22.27;40.74;96643.16;108509;1275;22747;-76
2024/04/14 10:01:11;;;;;;;3.80;1.10;;;;;;;22.29;41.67;96643.82;108558;1275;22534;-75
2024/04/14 10:03:46;;;;;;;4.70;1.50;;;;;;;22.40;40.94;96636.49;108557;1275;24405;-76
2024/04/14 10:06:21;;;;;;;4.20;1.80;;;;;;;22.34;40.05;96640.30;108523;1275;22601;-76
2024/04/14 10:08:54;;;;;;;3.10;1.60;;;;;;;22.27;38.90;96635.98;108536;1275;22533;-76
2024/04/14 10:11:31;;;;;;;5.20;1.70;;;;;;;22.27;39.24;96636.98;108473;1275;22670;-76
2024/04/14 10:14:07;;;;;;;2.10;1.50;;;;;;;22.30;39.22;96643.13;108492;1257;25503;-76
2024/04/14 10:16:39;;;;;;;3.80;1.50;;;;;;;22.40;40.02;96647.30;108567;1273;22527;-76
2024/04/14 10:19:11;;;;;;;2.00;1.20;;;;;;;22.46;39.39;96640.23;108520;1268;22517;-75
2024/04/14 10:21:42;;;;;;;3.10;1.50;;;;;;;22.38;38.33;96639.06;108561;1256;25141;-75
2024/04/14 10:24:18;;;;;;;2.50;1.50;;;;;;;22.33;38.91;96645.74;108511;1270;22552;-75
2024/04/14 10:26:52;;;;;;;2.70;1.40;;;;;;;22.51;39.90;96646.44;108513;1272;22536;-75
2024/04/14 10:29:28;;;;;;;2.10;1.30;;;;;;;22.63;38.88;96649.23;108567;1275;22689;-75
2024/04/14 10:32:01;;;;;;;2.90;1.10;;;;;;;22.68;38.27;96640.61;108512;1275;22628;-75
2024/04/14 10:34:33;;;;;;;3.50;1.30;;;;;;;22.59;37.31;96637.18;108406;1270;22614;-75
2024/04/14 10:37:05;;;;;;;4.40;1.50;;;;;;;22.57;37.95;96642.62;108501;1275;22636;-75
2024/04/14 10:39:40;;;;;;;2.80;1.30;;;;;;;22.68;37.01;96644.02;108550;1275;22674;-75
2024/04/14 10:42:14;;;;;;;1.90;1.50;;;;;;;22.75;37.52;96643.98;108535;1275;22535;-75
2024/04/14 10:44:49;;;;;;;3.80;1.30;;;;;;;22.80;37.69;96643.61;108551;1275;22564;-75
2024/04/14 10:47:24;;;;;;;2.00;1.30;;;;;;;22.85;37.21;96636.48;108486;1275;25436;-75
2024/04/14 10:49:55;;;;;;;4.10;1.40;;;;;;;22.85;36.38;96633.34;108542;1275;26525;-75
2024/04/14 10:52:27;;;;;;;3.10;1.60;;;;;;;22.81;36.08;96630.91;108513;1270;22852;-75
2024/04/14 10:55:01;;;;;;;4.30;1.70;;;;;;;22.84;36.47;96627.52;108559;1275;22538;-75
2024/04/14 10:57:32;;;;;;;2.20;1.20;;;;;;;22.90;36.62;96628.48;108531;1270;23617;-75
2024/04/14 11:00:06;;;;;;;2.90;1.50;;;;;;;22.93;36.28;96633.02;108545;1269;22581;-75
2024/04/14 11:02:39;;;;;;;2.90;1.60;;;;;;;22.98;36.39;96623.46;108505;1275;22711;-75
2024/04/14 11:05:13;;;;;;;1.70;1.30;;;;;;;22.98;36.58;96621.39;108547;1275;22533;-75
2024/04/14 11:07:47;;;;;;;3.00;1.50;;;;;;;22.98;36.59;96619.38;108525;1270;23090;-75
2024/04/14 11:10:23;;;;;;;3.30;1.60;;;;;;;22.93;36.36;96622.35;108497;1254;22523;-75
2024/04/14 11:12:55;;;;;;;3.10;1.60;;;;;;;22.90;37.15;96626.77;108548;1275;24255;-75
2024/04/14 11:15:29;;;;;;;2.40;1.50;;;;;;;23.02;37.45;96626.39;108593;1275;26264;-75
2024/04/14 11:18:01;;;;;;;3.50;1.90;;;;;;;23.08;37.65;96620.48;108531;1270;25333;-75
2024/04/14 11:20:32;;;;;;;4.40;1.70;;;;;;;23.08;37.45;96623.89;108574;1275;22532;-75
2024/04/14 11:23:03;;;;;;;4.20;1.70;;;;;;;23.00;37.37;96620.02;108569;1275;22602;-75
2024/04/14 11:25:34;;;;;;;2.70;1.80;;;;;;;22.93;36.81;96614.39;108618;1275;22542;-75
2024/04/14 11:28:10;;;;;;;2.10;1.40;;;;;;;22.94;37.44;96616.35;108578;1270;22546;-75
2024/04/14 11:30:42;;;;;;;2.50;1.80;;;;;;;22.98;37.55;96614.73;108521;1275;22543;-75
2024/04/14 11:33:23;;;;;;;3.30;1.70;;;;;;;23.02;37.86;96613.27;108576;1270;22570;-75
2024/04/14 11:36:00;;;;;;;2.20;1.30;;;;;;;23.12;38.22;96617.94;108547;1275;22540;-75
2024/04/14 11:38:38;;;;;;;2.60;1.40;;;;;;;23.22;38.36;96617.17;108575;1270;22537;-75
2024/04/14 11:41:11;;;;;;;4.10;1.90;;;;;;;23.30;37.95;96614.38;108546;1273;24191;-75
2024/04/14 11:43:47;;;;;;;3.00;1.50;;;;;;;23.44;38.50;96608.56;108529;1268;22536;-75
2024/04/14 11:46:18;;;;;;;4.00;1.80;;;;;;;23.50;38.06;96609.22;108539;1269;22562;-75